Wetterdaten: aktuell Samstag, 18.01.2020 18:04
Datum Zeit Temp. A. Feuchte A. Luftdruck Regen Wind Richtung Richtung Taupunkt Windchill Windben
18.01.2020 18:04 4,9 C 74 % 1026,7 hPa 0,0 l/m 0,0 km/h (0 Bft) SW 220 0,7 C 4,9 C 0,0 km/h (0 Bft)
18.01.2020 17:04 5,2 C 74 % 1026,3 hPa 0,0 l/m 0,0 km/h (0 Bft) W 265 1,0 C 5,2 C 0,0 km/h (0 Bft)
18.01.2020 15:57 5,9 C 71 % 1025,7 hPa 0,0 l/m 5,4 km/h (1 Bft) W 260 1,1 C 5,9 C 5,4 km/h (1 Bft)
18.01.2020 14:57 6,2 C 71 % 1025,8 hPa 0,0 l/m 4,8 km/h (1 Bft) W-SW 245 1,3 C 6,2 C 4,8 km/h (1 Bft)
18.01.2020 13:51 6,3 C 71 % 1025,6 hPa 0,0 l/m 7,6 km/h (2 Bft) W-SW 255 1,4 C 5,3 C 7,6 km/h (2 Bft)
18.01.2020 12:51 6,2 C 73 % 1025,9 hPa 0,0 l/m 9,1 km/h (2 Bft) W 270 1,7 C 4,0 C 9,1 km/h (2 Bft)
18.01.2020 11:51 6,0 C 75 % 1026,2 hPa 0,0 l/m 10,3 km/h (2 Bft) SW 215 1,9 C 3,0 C 10,3 km/h (2 Bft)
18.01.2020 10:45 5,4 C 76 % 1026,4 hPa 0,0 l/m 5,1 km/h (1 Bft) S-SW 205 1,5 C 5,4 C 5,1 km/h (1 Bft)
18.01.2020 09:44 5,2 C 76 % 1026,2 hPa 0,0 l/m 7,6 km/h (2 Bft) W 280 1,3 C 4,1 C 7,6 km/h (2 Bft)
18.01.2020 08:41 4,9 C 78 % 1025,7 hPa 0,0 l/m 5,4 km/h (1 Bft) SW 230 1,4 C 4,9 C 5,4 km/h (1 Bft)
18.01.2020 07:40 5,3 C 79 % 1024,9 hPa 0,0 l/m 10,9 km/h (2 Bft) W-SW 250 2,0 C 1,8 C 10,9 km/h (2 Bft)
18.01.2020 06:40 5,3 C 83 % 1024,1 hPa 0,0 l/m 9,7 km/h (2 Bft) W-SW 255 2,7 C 2,6 C 9,7 km/h (2 Bft)
18.01.2020 05:39 4,4 C 89 % 1023,5 hPa 0,0 l/m 0,0 km/h (0 Bft) SW 230 2,7 C 4,4 C 0,0 km/h (0 Bft)
18.01.2020 04:36 4,4 C 89 % 1022,9 hPa 0,0 l/m 4,5 km/h (1 Bft) S-SO 160 2,7 C 4,4 C 4,5 km/h (1 Bft)
18.01.2020 03:35 5,1 C 88 % 1022,2 hPa 0,0 l/m 0,6 km/h (0 Bft) S-SW 210 3,3 C 5,1 C 0,6 km/h (0 Bft)
18.01.2020 02:28 4,5 C 88 % 1021,9 hPa 0,0 l/m 3,9 km/h (1 Bft) S-SO 155 2,7 C 4,5 C 3,9 km/h (1 Bft)
18.01.2020 01:22 4,1 C 86 % 1021,0 hPa 0,0 l/m 3,3 km/h (1 Bft) S-SW 210 2,0 C 4,1 C 3,3 km/h (1 Bft)
18.01.2020 00:18 3,4 C 86 % 1020,9 hPa 0,0 l/m 4,2 km/h (1 Bft) O-NO 70 1,3 C 3,4 C 4,2 km/h (1 Bft)
17.01.2020 23:18 3,3 C 85 % 1020,6 hPa 0,0 l/m 8,5 km/h (2 Bft) O-SO 120 1,0 C 1,4 C 8,5 km/h (2 Bft)
17.01.2020 22:15 2,9 C 86 % 1020,3 hPa 0,0 l/m 4,2 km/h (1 Bft) O-SO 120 0,8 C 2,9 C 4,2 km/h (1 Bft)
17.01.2020 21:14 2,2 C 87 % 1020,2 hPa 0,0 l/m 3,3 km/h (1 Bft) SW 230 0,3 C 2,2 C 3,3 km/h (1 Bft)
17.01.2020 20:10 1,8 C 86 % 1019,8 hPa 0,0 l/m 5,4 km/h (1 Bft) S 180 -0,3 C 1,8 C 5,4 km/h (1 Bft)
17.01.2020 19:03 1,9 C 85 % 1019,5 hPa 0,0 l/m 5,7 km/h (1 Bft) SO 135 -0,3 C 1,9 C 5,7 km/h (1 Bft)
17.01.2020 19:00 1,9 C 85 % 1019,5 hPa 0,0 l/m 0,3 km/h (0 Bft) W-SW 255 -0,3 C 1,9 C 0,3 km/h (0 Bft)
_ Min-Zeit 19:08 13:11 19:15 - 19:11 - - 19:08 22:02 19:11
Minimum _ 1,8 C 71 % 1019,4 hPa - 0,0 km/h (0 Bft) - - -0,4 C -1,6 C 0,0 km/h (0 Bft)
_ Max-Zeit 13:09 03:15 17:59 19:00 06:30 - - 03:35 13:14 06:30
Maximum _ 6,4 C 89 % 1026,8 hPa 0,0 l/m 16,0 km/h
S (3 Bft)
- - 3,3 C 6,4 C 16,0 km/h
S (3 Bft)
Durchschnitt _ 4,4 C 81 % 1023,2 hPa #0,0 l/m 5,2 km/h (1 Bft) W - 1,4 C 3,7 C 5,2 km/h (1 Bft)